sensor_id;sensor_type;location;lat;lon;timestamp;temperature;humidity
3100;DHT22;1560;52.746;13.474;2023-07-31T00:02:29;15.70;99.90
3100;DHT22;1560;52.746;13.474;2023-07-31T00:04:57;15.70;99.90
3100;DHT22;1560;52.746;13.474;2023-07-31T00:07:26;15.60;99.90
3100;DHT22;1560;52.746;13.474;2023-07-31T00:12:30;15.60;99.90
3100;DHT22;1560;52.746;13.474;2023-07-31T00:15:00;15.40;99.90
3100;DHT22;1560;52.746;13.474;2023-07-31T00:17:28;15.40;99.90
3100;DHT22;1560;52.746;13.474;2023-07-31T00:19:57;15.40;99.90
3100;DHT22;1560;52.746;13.474;2023-07-31T00:22:25;15.40;99.90
3100;DHT22;1560;52.746;13.474;2023-07-31T00:27:32;15.40;99.90
3100;DHT22;1560;52.746;13.474;2023-07-31T00:32:36;15.20;99.90
3100;DHT22;1560;52.746;13.474;2023-07-31T00:35:06;15.20;99.90
3100;DHT22;1560;52.746;13.474;2023-07-31T00:37:35;15.30;99.90
3100;DHT22;1560;52.746;13.474;2023-07-31T00:40:05;15.30;99.90
3100;DHT22;1560;52.746;13.474;2023-07-31T00:45:11;15.30;99.90
3100;DHT22;1560;52.746;13.474;2023-07-31T00:47:40;15.30;99.90
3100;DHT22;1560;52.746;13.474;2023-07-31T00:52:47;15.40;99.90
3100;DHT22;1560;52.746;13.474;2023-07-31T00:55:17;15.40;99.90
3100;DHT22;1560;52.746;13.474;2023-07-31T00:57:46;15.30;99.90
3100;DHT22;1560;52.746;13.474;2023-07-31T01:00:15;15.30;99.90
3100;DHT22;1560;52.746;13.474;2023-07-31T01:10:46;15.20;99.90
3100;DHT22;1560;52.746;13.474;2023-07-31T01:13:12;15.20;99.90
3100;DHT22;1560;52.746;13.474;2023-07-31T01:15:41;15.20;99.90
3100;DHT22;1560;52.746;13.474;2023-07-31T01:20:50;15.20;99.90
3100;DHT22;1560;52.746;13.474;2023-07-31T01:26:23;15.20;99.90
3100;DHT22;1560;52.746;13.474;2023-07-31T01:31:32;15.20;99.90
3100;DHT22;1560;52.746;13.474;2023-07-31T01:34:02;15.20;99.90
3100;DHT22;1560;52.746;13.474;2023-07-31T01:36:31;15.20;99.90
3100;DHT22;1560;52.746;13.474;2023-07-31T01:39:00;15.20;99.90
3100;DHT22;1560;52.746;13.474;2023-07-31T01:41:29;15.10;99.90
3100;DHT22;1560;52.746;13.474;2023-07-31T01:43:58;15.10;99.90
3100;DHT22;1560;52.746;13.474;2023-07-31T01:46:26;15.10;99.90
3100;DHT22;1560;52.746;13.474;2023-07-31T01:51:32;15.20;99.90
3100;DHT22;1560;52.746;13.474;2023-07-31T01:54:02;15.20;99.90
3100;DHT22;1560;52.746;13.474;2023-07-31T01:56:30;15.20;99.90
3100;DHT22;1560;52.746;13.474;2023-07-31T01:58:59;15.30;99.90
3100;DHT22;1560;52.746;13.474;2023-07-31T02:04:04;15.20;99.90
3100;DHT22;1560;52.746;13.474;2023-07-31T02:06:33;15.20;99.90
3100;DHT22;1560;52.746;13.474;2023-07-31T02:11:40;15.20;99.90
3100;DHT22;1560;52.746;13.474;2023-07-31T02:14:08;15.20;99.90
3100;DHT22;1560;52.746;13.474;2023-07-31T02:16:37;15.20;99.90
3100;DHT22;1560;52.746;13.474;2023-07-31T02:19:05;15.20;99.90
3100;DHT22;1560;52.746;13.474;2023-07-31T02:21:34;15.20;99.90
3100;DHT22;1560;52.746;13.474;2023-07-31T02:26:40;15.20;99.90
3100;DHT22;1560;52.746;13.474;2023-07-31T02:31:45;15.30;99.90
3100;DHT22;1560;52.746;13.474;2023-07-31T02:34:14;15.30;99.90
3100;DHT22;1560;52.746;13.474;2023-07-31T02:36:42;15.30;99.90
3100;DHT22;1560;52.746;13.474;2023-07-31T02:41:47;15.30;99.90
3100;DHT22;1560;52.746;13.474;2023-07-31T02:44:16;15.30;99.90
3100;DHT22;1560;52.746;13.474;2023-07-31T02:46:45;15.30;99.90
3100;DHT22;1560;52.746;13.474;2023-07-31T02:49:13;15.30;99.90
3100;DHT22;1560;52.746;13.474;2023-07-31T02:51:42;15.30;99.90
3100;DHT22;1560;52.746;13.474;2023-07-31T02:54:10;15.30;99.90
3100;DHT22;1560;52.746;13.474;2023-07-31T02:56:39;15.30;99.90
3100;DHT22;1560;52.746;13.474;2023-07-31T02:59:07;15.30;99.90
3100;DHT22;1560;52.746;13.474;2023-07-31T03:01:36;15.30;99.90
3100;DHT22;1560;52.746;13.474;2023-07-31T03:04:06;15.30;99.90
3100;DHT22;1560;52.746;13.474;2023-07-31T03:06:35;15.30;99.90
3100;DHT22;1560;52.746;13.474;2023-07-31T03:11:41;15.30;99.90
3100;DHT22;1560;52.746;13.474;2023-07-31T03:14:10;15.30;99.90
3100;DHT22;1560;52.746;13.474;2023-07-31T03:16:38;15.30;99.90
3100;DHT22;1560;52.746;13.474;2023-07-31T03:19:07;15.30;99.90
3100;DHT22;1560;52.746;13.474;2023-07-31T03:21:36;15.30;99.90
3100;DHT22;1560;52.746;13.474;2023-07-31T03:26:42;15.20;99.90
3100;DHT22;1560;52.746;13.474;2023-07-31T03:29:11;15.30;99.90
3100;DHT22;1560;52.746;13.474;2023-07-31T03:31:39;15.30;99.90
3100;DHT22;1560;52.746;13.474;2023-07-31T03:34:08;15.20;99.90
3100;DHT22;1560;52.746;13.474;2023-07-31T03:36:37;15.30;99.90
3100;DHT22;1560;52.746;13.474;2023-07-31T03:39:05;15.20;99.90
3100;DHT22;1560;52.746;13.474;2023-07-31T03:44:11;15.30;99.90
3100;DHT22;1560;52.746;13.474;2023-07-31T03:46:40;15.30;99.90
3100;DHT22;1560;52.746;13.474;2023-07-31T03:49:09;15.20;99.90
3100;DHT22;1560;52.746;13.474;2023-07-31T03:51:37;15.30;99.90
3100;DHT22;1560;52.746;13.474;2023-07-31T03:54:06;15.30;99.90
3100;DHT22;1560;52.746;13.474;2023-07-31T03:59:12;15.40;99.90
3100;DHT22;1560;52.746;13.474;2023-07-31T04:01:41;15.40;99.90
3100;DHT22;1560;52.746;13.474;2023-07-31T04:04:09;15.40;99.90
3100;DHT22;1560;52.746;13.474;2023-07-31T04:09:15;15.40;99.90
3100;DHT22;1560;52.746;13.474;2023-07-31T04:11:44;15.40;99.90
3100;DHT22;1560;52.746;13.474;2023-07-31T04:14:12;15.40;99.90
3100;DHT22;1560;52.746;13.474;2023-07-31T04:16:41;15.40;99.90
3100;DHT22;1560;52.746;13.474;2023-07-31T04:19:09;15.40;99.90
3100;DHT22;1560;52.746;13.474;2023-07-31T04:21:38;15.40;99.90
3100;DHT22;1560;52.746;13.474;2023-07-31T04:24:07;15.40;99.90
3100;DHT22;1560;52.746;13.474;2023-07-31T04:26:35;15.40;99.90
3100;DHT22;1560;52.746;13.474;2023-07-31T04:29:04;15.40;99.90
3100;DHT22;1560;52.746;13.474;2023-07-31T04:31:33;15.40;99.90
3100;DHT22;1560;52.746;13.474;2023-07-31T04:34:01;15.40;99.90
3100;DHT22;1560;52.746;13.474;2023-07-31T04:36:31;15.40;99.90
3100;DHT22;1560;52.746;13.474;2023-07-31T04:39:00;15.50;99.90
3100;DHT22;1560;52.746;13.474;2023-07-31T04:44:06;15.50;99.90
3100;DHT22;1560;52.746;13.474;2023-07-31T04:46:35;15.50;99.90
3100;DHT22;1560;52.746;13.474;2023-07-31T04:49:03;15.50;99.90
3100;DHT22;1560;52.746;13.474;2023-07-31T04:51:32;15.50;99.90
3100;DHT22;1560;52.746;13.474;2023-07-31T04:54:00;15.50;99.90
3100;DHT22;1560;52.746;13.474;2023-07-31T04:56:29;15.40;99.90
3100;DHT22;1560;52.746;13.474;2023-07-31T05:01:35;15.40;99.90
3100;DHT22;1560;52.746;13.474;2023-07-31T05:04:04;15.50;99.90
3100;DHT22;1560;52.746;13.474;2023-07-31T05:06:33;15.40;99.90
3100;DHT22;1560;52.746;13.474;2023-07-31T05:09:01;15.40;99.90
3100;DHT22;1560;52.746;13.474;2023-07-31T05:11:30;15.40;99.90
3100;DHT22;1560;52.746;13.474;2023-07-31T05:13:58;15.50;99.90
3100;DHT22;1560;52.746;13.474;2023-07-31T05:16:27;15.50;99.90
3100;DHT22;1560;52.746;13.474;2023-07-31T05:18:55;15.50;99.90
3100;DHT22;1560;52.746;13.474;2023-07-31T05:21:24;15.40;99.90
3100;DHT22;1560;52.746;13.474;2023-07-31T05:23:53;15.40;99.90
3100;DHT22;1560;52.746;13.474;2023-07-31T05:28:58;15.50;99.90
3100;DHT22;1560;52.746;13.474;2023-07-31T05:31:27;15.50;99.90
3100;DHT22;1560;52.746;13.474;2023-07-31T05:33:56;15.60;99.90
3100;DHT22;1560;52.746;13.474;2023-07-31T05:36:24;15.60;99.90
3100;DHT22;1560;52.746;13.474;2023-07-31T05:38:53;15.70;99.90
3100;DHT22;1560;52.746;13.474;2023-07-31T05:43:59;15.80;99.90
3100;DHT22;1560;52.746;13.474;2023-07-31T05:46:27;15.70;99.90
3100;DHT22;1560;52.746;13.474;2023-07-31T05:48:56;15.70;99.90
3100;DHT22;1560;52.746;13.474;2023-07-31T05:51:26;15.80;99.90
3100;DHT22;1560;52.746;13.474;2023-07-31T05:53:55;15.80;99.90
3100;DHT22;1560;52.746;13.474;2023-07-31T05:56:24;15.90;99.90
3100;DHT22;1560;52.746;13.474;2023-07-31T05:58:54;15.90;99.90
3100;DHT22;1560;52.746;13.474;2023-07-31T06:01:24;15.90;99.90
3100;DHT22;1560;52.746;13.474;2023-07-31T06:03:53;15.90;99.90
3100;DHT22;1560;52.746;13.474;2023-07-31T06:06:21;15.90;99.90
3100;DHT22;1560;52.746;13.474;2023-07-31T06:08:50;15.90;99.90
3100;DHT22;1560;52.746;13.474;2023-07-31T06:11:19;15.90;99.90
3100;DHT22;1560;52.746;13.474;2023-07-31T06:13:48;15.90;99.90
3100;DHT22;1560;52.746;13.474;2023-07-31T06:18:54;15.90;99.90
3100;DHT22;1560;52.746;13.474;2023-07-31T06:24:00;15.90;99.90
3100;DHT22;1560;52.746;13.474;2023-07-31T06:26:29;15.90;99.90
3100;DHT22;1560;52.746;13.474;2023-07-31T06:28:57;15.90;99.90
3100;DHT22;1560;52.746;13.474;2023-07-31T06:31:26;16.00;99.90
3100;DHT22;1560;52.746;13.474;2023-07-31T06:33:55;16.00;99.90
3100;DHT22;1560;52.746;13.474;2023-07-31T06:39:00;16.10;99.90
3100;DHT22;1560;52.746;13.474;2023-07-31T06:41:29;16.10;99.90
3100;DHT22;1560;52.746;13.474;2023-07-31T06:43:58;16.20;99.90
3100;DHT22;1560;52.746;13.474;2023-07-31T06:46:26;16.20;99.90
3100;DHT22;1560;52.746;13.474;2023-07-31T06:51:31;16.30;99.90
3100;DHT22;1560;52.746;13.474;2023-07-31T06:54:00;16.30;99.90
3100;DHT22;1560;52.746;13.474;2023-07-31T06:56:28;16.30;99.90
3100;DHT22;1560;52.746;13.474;2023-07-31T06:58:57;16.30;99.90
3100;DHT22;1560;52.746;13.474;2023-07-31T07:01:26;16.40;99.90
3100;DHT22;1560;52.746;13.474;2023-07-31T07:06:32;16.60;99.90
3100;DHT22;1560;52.746;13.474;2023-07-31T07:09:01;16.60;99.90
3100;DHT22;1560;52.746;13.474;2023-07-31T07:11:30;16.60;99.90
3100;DHT22;1560;52.746;13.474;2023-07-31T07:13:59;16.60;99.90
3100;DHT22;1560;52.746;13.474;2023-07-31T07:19:06;16.70;99.90
3100;DHT22;1560;52.746;13.474;2023-07-31T07:24:12;16.80;99.90
3100;DHT22;1560;52.746;13.474;2023-07-31T07:26:41;16.90;99.90
3100;DHT22;1560;52.746;13.474;2023-07-31T07:29:09;16.90;99.90
3100;DHT22;1560;52.746;13.474;2023-07-31T07:31:38;16.90;99.90
3100;DHT22;1560;52.746;13.474;2023-07-31T07:36:44;17.00;99.90
3100;DHT22;1560;52.746;13.474;2023-07-31T07:39:12;17.00;99.90
3100;DHT22;1560;52.746;13.474;2023-07-31T07:41:41;17.00;99.90
3100;DHT22;1560;52.746;13.474;2023-07-31T07:46:47;17.00;99.90
3100;DHT22;1560;52.746;13.474;2023-07-31T07:49:15;17.00;99.90
3100;DHT22;1560;52.746;13.474;2023-07-31T07:51:44;16.90;99.90
3100;DHT22;1560;52.746;13.474;2023-07-31T07:54:12;16.90;99.90
3100;DHT22;1560;52.746;13.474;2023-07-31T07:59:18;16.90;99.90
3100;DHT22;1560;52.746;13.474;2023-07-31T08:04:24;17.00;99.90
3100;DHT22;1560;52.746;13.474;2023-07-31T08:06:53;17.00;99.90
3100;DHT22;1560;52.746;13.474;2023-07-31T08:09:22;17.00;99.90
3100;DHT22;1560;52.746;13.474;2023-07-31T08:11:50;17.10;99.90
3100;DHT22;1560;52.746;13.474;2023-07-31T08:14:19;17.20;99.90
3100;DHT22;1560;52.746;13.474;2023-07-31T08:19:23;17.20;99.90
3100;DHT22;1560;52.746;13.474;2023-07-31T08:21:52;17.20;99.90
3100;DHT22;1560;52.746;13.474;2023-07-31T08:26:58;17.30;99.90
3100;DHT22;1560;52.746;13.474;2023-07-31T08:29:27;17.20;99.90
3100;DHT22;1560;52.746;13.474;2023-07-31T08:31:55;17.30;99.90
3100;DHT22;1560;52.746;13.474;2023-07-31T08:34:24;17.30;99.90
3100;DHT22;1560;52.746;13.474;2023-07-31T08:39:31;17.20;99.90
3100;DHT22;1560;52.746;13.474;2023-07-31T08:42:00;17.00;99.90
3100;DHT22;1560;52.746;13.474;2023-07-31T08:44:30;17.00;99.90
3100;DHT22;1560;52.746;13.474;2023-07-31T08:46:59;17.10;99.90
3100;DHT22;1560;52.746;13.474;2023-07-31T08:49:30;17.10;99.90
3100;DHT22;1560;52.746;13.474;2023-07-31T08:51:59;17.20;99.90
3100;DHT22;1560;52.746;13.474;2023-07-31T08:54:28;17.30;99.90
3100;DHT22;1560;52.746;13.474;2023-07-31T08:59:36;17.50;99.90
3100;DHT22;1560;52.746;13.474;2023-07-31T09:02:07;17.50;99.90
3100;DHT22;1560;52.746;13.474;2023-07-31T09:04:36;17.50;99.90
3100;DHT22;1560;52.746;13.474;2023-07-31T09:07:07;17.50;99.90
3100;DHT22;1560;52.746;13.474;2023-07-31T09:09:36;17.50;99.90
3100;DHT22;1560;52.746;13.474;2023-07-31T09:14:45;17.50;99.90
3100;DHT22;1560;52.746;13.474;2023-07-31T09:17:15;17.60;99.90
3100;DHT22;1560;52.746;13.474;2023-07-31T09:22:32;17.60;99.90
3100;DHT22;1560;52.746;13.474;2023-07-31T09:27:54;17.40;99.90
3100;DHT22;1560;52.746;13.474;2023-07-31T09:33:02;17.40;99.90
3100;DHT22;1560;52.746;13.474;2023-07-31T09:35:32;17.50;99.90
3100;DHT22;1560;52.746;13.474;2023-07-31T09:40:41;17.80;99.90
3100;DHT22;1560;52.746;13.474;2023-07-31T09:43:12;17.80;99.90
3100;DHT22;1560;52.746;13.474;2023-07-31T09:45:42;17.90;99.90
3100;DHT22;1560;52.746;13.474;2023-07-31T09:48:12;17.80;99.90
3100;DHT22;1560;52.746;13.474;2023-07-31T09:53:20;17.70;99.90
3100;DHT22;1560;52.746;13.474;2023-07-31T09:55:50;17.60;99.90
3100;DHT22;1560;52.746;13.474;2023-07-31T10:00:58;17.60;99.90
3100;DHT22;1560;52.746;13.474;2023-07-31T10:03:28;17.50;99.90
3100;DHT22;1560;52.746;13.474;2023-07-31T10:05:58;17.50;99.90
3100;DHT22;1560;52.746;13.474;2023-07-31T10:11:08;17.40;99.90
3100;DHT22;1560;52.746;13.474;2023-07-31T10:13:38;17.40;99.90
3100;DHT22;1560;52.746;13.474;2023-07-31T10:16:07;17.30;99.90
3100;DHT22;1560;52.746;13.474;2023-07-31T10:18:36;17.30;99.90
3100;DHT22;1560;52.746;13.474;2023-07-31T10:21:06;17.30;99.90
3100;DHT22;1560;52.746;13.474;2023-07-31T10:26:14;17.20;99.90
3100;DHT22;1560;52.746;13.474;2023-07-31T10:28:43;17.20;99.90
3100;DHT22;1560;52.746;13.474;2023-07-31T10:33:49;17.20;99.90
3100;DHT22;1560;52.746;13.474;2023-07-31T10:36:19;17.20;99.90
3100;DHT22;1560;52.746;13.474;2023-07-31T10:38:50;17.20;99.90
3100;DHT22;1560;52.746;13.474;2023-07-31T10:41:18;17.30;99.90
3100;DHT22;1560;52.746;13.474;2023-07-31T10:43:47;17.40;99.90
3100;DHT22;1560;52.746;13.474;2023-07-31T10:46:16;17.40;99.90
3100;DHT22;1560;52.746;13.474;2023-07-31T10:51:21;17.50;99.90
3100;DHT22;1560;52.746;13.474;2023-07-31T10:56:30;17.40;99.90
3100;DHT22;1560;52.746;13.474;2023-07-31T10:59:02;17.50;99.90
3100;DHT22;1560;52.746;13.474;2023-07-31T11:01:50;17.50;99.90
3100;DHT22;1560;52.746;13.474;2023-07-31T11:04:23;17.60;99.90
3100;DHT22;1560;52.746;13.474;2023-07-31T11:06:59;17.60;99.90
3100;DHT22;1560;52.746;13.474;2023-07-31T11:09:30;17.70;99.90
3100;DHT22;1560;52.746;13.474;2023-07-31T11:14:36;17.70;99.90
3100;DHT22;1560;52.746;13.474;2023-07-31T11:17:08;17.80;99.90
3100;DHT22;1560;52.746;13.474;2023-07-31T11:22:15;18.10;99.90
3100;DHT22;1560;52.746;13.474;2023-07-31T11:24:44;18.20;99.90
3100;DHT22;1560;52.746;13.474;2023-07-31T11:27:13;18.40;99.90
3100;DHT22;1560;52.746;13.474;2023-07-31T11:29:41;18.40;99.90
3100;DHT22;1560;52.746;13.474;2023-07-31T11:32:17;18.40;99.90
3100;DHT22;1560;52.746;13.474;2023-07-31T11:34:52;18.40;99.90
3100;DHT22;1560;52.746;13.474;2023-07-31T11:37:22;18.40;99.90
3100;DHT22;1560;52.746;13.474;2023-07-31T11:42:37;18.30;99.90
3100;DHT22;1560;52.746;13.474;2023-07-31T11:45:08;18.40;99.90
3100;DHT22;1560;52.746;13.474;2023-07-31T11:50:14;18.70;99.90
3100;DHT22;1560;52.746;13.474;2023-07-31T11:52:45;19.00;99.90
3100;DHT22;1560;52.746;13.474;2023-07-31T11:55:15;19.20;99.90
3100;DHT22;1560;52.746;13.474;2023-07-31T11:57:45;19.20;99.90
3100;DHT22;1560;52.746;13.474;2023-07-31T12:02:53;19.10;99.90
3100;DHT22;1560;52.746;13.474;2023-07-31T12:05:23;19.10;99.90
3100;DHT22;1560;52.746;13.474;2023-07-31T12:10:31;19.10;99.90
3100;DHT22;1560;52.746;13.474;2023-07-31T12:13:03;19.00;99.90
3100;DHT22;1560;52.746;13.474;2023-07-31T12:15:39;19.00;99.90
3100;DHT22;1560;52.746;13.474;2023-07-31T12:20:48;19.00;99.90
3100;DHT22;1560;52.746;13.474;2023-07-31T12:23:18;19.00;99.90
3100;DHT22;1560;52.746;13.474;2023-07-31T12:25:54;19.00;99.90
3100;DHT22;1560;52.746;13.474;2023-07-31T12:31:01;18.90;99.90
3100;DHT22;1560;52.746;13.474;2023-07-31T12:33:32;18.90;99.90
3100;DHT22;1560;52.746;13.474;2023-07-31T12:36:02;18.80;99.90
3100;DHT22;1560;52.746;13.474;2023-07-31T12:38:31;18.80;99.90
3100;DHT22;1560;52.746;13.474;2023-07-31T12:41:00;18.70;99.90
3100;DHT22;1560;52.746;13.474;2023-07-31T12:43:28;18.70;99.90
3100;DHT22;1560;52.746;13.474;2023-07-31T12:48:35;18.80;99.90
3100;DHT22;1560;52.746;13.474;2023-07-31T12:51:04;18.80;99.90
3100;DHT22;1560;52.746;13.474;2023-07-31T12:53:34;18.80;99.90
3100;DHT22;1560;52.746;13.474;2023-07-31T12:58:40;18.80;99.90
3100;DHT22;1560;52.746;13.474;2023-07-31T13:01:08;18.80;99.90
3100;DHT22;1560;52.746;13.474;2023-07-31T13:03:37;18.80;99.90
3100;DHT22;1560;52.746;13.474;2023-07-31T13:06:06;18.80;99.90
3100;DHT22;1560;52.746;13.474;2023-07-31T13:08:34;18.70;99.90
3100;DHT22;1560;52.746;13.474;2023-07-31T13:13:40;18.60;99.90
3100;DHT22;1560;52.746;13.474;2023-07-31T13:16:09;18.70;99.90
3100;DHT22;1560;52.746;13.474;2023-07-31T13:18:37;18.70;99.90
3100;DHT22;1560;52.746;13.474;2023-07-31T13:23:43;18.90;99.90
3100;DHT22;1560;52.746;13.474;2023-07-31T13:26:11;19.00;99.90
3100;DHT22;1560;52.746;13.474;2023-07-31T13:28:40;19.00;99.90
3100;DHT22;1560;52.746;13.474;2023-07-31T13:33:46;19.20;99.90
3100;DHT22;1560;52.746;13.474;2023-07-31T13:36:15;19.30;99.90
3100;DHT22;1560;52.746;13.474;2023-07-31T13:38:43;19.40;99.90
3100;DHT22;1560;52.746;13.474;2023-07-31T13:41:12;19.40;99.90
3100;DHT22;1560;52.746;13.474;2023-07-31T13:43:40;19.40;99.90
3100;DHT22;1560;52.746;13.474;2023-07-31T13:48:46;19.60;99.90
3100;DHT22;1560;52.746;13.474;2023-07-31T13:51:15;19.70;99.90
3100;DHT22;1560;52.746;13.474;2023-07-31T13:56:20;19.80;99.90
3100;DHT22;1560;52.746;13.474;2023-07-31T13:58:49;19.90;99.90
3100;DHT22;1560;52.746;13.474;2023-07-31T14:03:55;19.90;99.90
3100;DHT22;1560;52.746;13.474;2023-07-31T14:06:24;19.80;99.90
3100;DHT22;1560;52.746;13.474;2023-07-31T14:11:30;19.80;99.90
3100;DHT22;1560;52.746;13.474;2023-07-31T14:13:59;19.80;99.90
3100;DHT22;1560;52.746;13.474;2023-07-31T14:16:28;19.80;99.90
3100;DHT22;1560;52.746;13.474;2023-07-31T14:18:57;19.80;99.90
3100;DHT22;1560;52.746;13.474;2023-07-31T14:21:26;19.70;99.90
3100;DHT22;1560;52.746;13.474;2023-07-31T14:23:55;19.70;99.90
3100;DHT22;1560;52.746;13.474;2023-07-31T14:26:24;19.60;99.90
3100;DHT22;1560;52.746;13.474;2023-07-31T14:31:29;19.50;99.90
3100;DHT22;1560;52.746;13.474;2023-07-31T14:33:58;19.50;99.90
3100;DHT22;1560;52.746;13.474;2023-07-31T14:36:27;19.50;99.90
3100;DHT22;1560;52.746;13.474;2023-07-31T14:41:32;19.50;99.90
3100;DHT22;1560;52.746;13.474;2023-07-31T14:44:01;19.50;99.90
3100;DHT22;1560;52.746;13.474;2023-07-31T14:46:30;19.50;99.90
3100;DHT22;1560;52.746;13.474;2023-07-31T14:48:58;19.50;99.90
3100;DHT22;1560;52.746;13.474;2023-07-31T14:51:27;19.50;99.90
3100;DHT22;1560;52.746;13.474;2023-07-31T14:53:55;19.50;99.90
3100;DHT22;1560;52.746;13.474;2023-07-31T14:59:01;19.50;99.90
3100;DHT22;1560;52.746;13.474;2023-07-31T15:01:30;19.50;99.90
3100;DHT22;1560;52.746;13.474;2023-07-31T15:03:59;19.50;99.90
3100;DHT22;1560;52.746;13.474;2023-07-31T15:06:28;19.50;99.90
3100;DHT22;1560;52.746;13.474;2023-07-31T15:08:56;19.50;99.90
3100;DHT22;1560;52.746;13.474;2023-07-31T15:14:03;19.50;99.90
3100;DHT22;1560;52.746;13.474;2023-07-31T15:16:32;19.50;99.90
3100;DHT22;1560;52.746;13.474;2023-07-31T15:19:00;19.50;99.90
3100;DHT22;1560;52.746;13.474;2023-07-31T15:24:06;19.60;99.90
3100;DHT22;1560;52.746;13.474;2023-07-31T15:26:35;19.70;99.90
3100;DHT22;1560;52.746;13.474;2023-07-31T15:29:06;19.70;99.90
3100;DHT22;1560;52.746;13.474;2023-07-31T15:31:39;19.70;99.90
3100;DHT22;1560;52.746;13.474;2023-07-31T15:36:44;19.70;99.90
3100;DHT22;1560;52.746;13.474;2023-07-31T15:39:13;19.60;99.90
3100;DHT22;1560;52.746;13.474;2023-07-31T15:41:42;19.70;99.90
3100;DHT22;1560;52.746;13.474;2023-07-31T15:44:11;19.80;99.90
3100;DHT22;1560;52.746;13.474;2023-07-31T15:46:39;19.80;99.90
3100;DHT22;1560;52.746;13.474;2023-07-31T15:49:08;19.70;99.90
3100;DHT22;1560;52.746;13.474;2023-07-31T15:51:36;19.70;99.90
3100;DHT22;1560;52.746;13.474;2023-07-31T15:54:05;19.70;99.90
3100;DHT22;1560;52.746;13.474;2023-07-31T15:56:34;19.60;99.90
3100;DHT22;1560;52.746;13.474;2023-07-31T15:59:02;19.60;99.90
3100;DHT22;1560;52.746;13.474;2023-07-31T16:01:31;19.60;99.90
3100;DHT22;1560;52.746;13.474;2023-07-31T16:04:00;19.60;99.90
3100;DHT22;1560;52.746;13.474;2023-07-31T16:06:28;19.70;99.90
3100;DHT22;1560;52.746;13.474;2023-07-31T16:08:57;19.60;99.90
3100;DHT22;1560;52.746;13.474;2023-07-31T16:11:27;19.50;99.90
3100;DHT22;1560;52.746;13.474;2023-07-31T16:13:55;19.50;99.90
3100;DHT22;1560;52.746;13.474;2023-07-31T16:16:24;19.50;99.90
3100;DHT22;1560;52.746;13.474;2023-07-31T16:18:54;19.50;99.90
3100;DHT22;1560;52.746;13.474;2023-07-31T16:21:23;19.50;99.90
3100;DHT22;1560;52.746;13.474;2023-07-31T16:23:51;19.40;99.90
3100;DHT22;1560;52.746;13.474;2023-07-31T16:28:57;19.20;99.90
3100;DHT22;1560;52.746;13.474;2023-07-31T16:31:26;19.30;99.90
3100;DHT22;1560;52.746;13.474;2023-07-31T16:33:55;19.30;99.90
3100;DHT22;1560;52.746;13.474;2023-07-31T16:36:25;19.30;99.90
3100;DHT22;1560;52.746;13.474;2023-07-31T16:41:30;19.30;99.90
3100;DHT22;1560;52.746;13.474;2023-07-31T16:43:58;19.20;99.90
3100;DHT22;1560;52.746;13.474;2023-07-31T16:46:27;19.20;99.90
3100;DHT22;1560;52.746;13.474;2023-07-31T16:48:57;19.10;99.90
3100;DHT22;1560;52.746;13.474;2023-07-31T16:51:26;19.10;99.90
3100;DHT22;1560;52.746;13.474;2023-07-31T16:53:55;19.00;99.90
3100;DHT22;1560;52.746;13.474;2023-07-31T16:59:01;19.00;99.90
3100;DHT22;1560;52.746;13.474;2023-07-31T17:01:30;19.00;99.90
3100;DHT22;1560;52.746;13.474;2023-07-31T17:03:59;18.90;99.90
3100;DHT22;1560;52.746;13.474;2023-07-31T17:06:28;18.90;99.90
3100;DHT22;1560;52.746;13.474;2023-07-31T17:08:56;19.00;99.90
3100;DHT22;1560;52.746;13.474;2023-07-31T17:11:25;19.00;99.90
3100;DHT22;1560;52.746;13.474;2023-07-31T17:13:54;18.90;99.90
3100;DHT22;1560;52.746;13.474;2023-07-31T17:16:22;18.80;99.90
3100;DHT22;1560;52.746;13.474;2023-07-31T17:18:51;18.80;99.90
3100;DHT22;1560;52.746;13.474;2023-07-31T17:21:19;18.80;99.90
3100;DHT22;1560;52.746;13.474;2023-07-31T17:26:25;18.70;99.90
3100;DHT22;1560;52.746;13.474;2023-07-31T17:28:54;18.60;99.90
3100;DHT22;1560;52.746;13.474;2023-07-31T17:31:23;18.60;99.90
3100;DHT22;1560;52.746;13.474;2023-07-31T17:33:52;18.50;99.90
3100;DHT22;1560;52.746;13.474;2023-07-31T17:38:58;18.50;99.90
3100;DHT22;1560;52.746;13.474;2023-07-31T17:41:26;18.50;99.90
3100;DHT22;1560;52.746;13.474;2023-07-31T17:43:55;18.50;99.90
3100;DHT22;1560;52.746;13.474;2023-07-31T17:46:24;18.50;99.90
3100;DHT22;1560;52.746;13.474;2023-07-31T17:48:52;18.50;99.90
3100;DHT22;1560;52.746;13.474;2023-07-31T17:51:22;18.40;99.90
3100;DHT22;1560;52.746;13.474;2023-07-31T17:56:27;18.40;99.90
3100;DHT22;1560;52.746;13.474;2023-07-31T17:58:56;18.40;99.90
3100;DHT22;1560;52.746;13.474;2023-07-31T18:01:25;18.40;99.90
3100;DHT22;1560;52.746;13.474;2023-07-31T18:03:54;18.40;99.90
3100;DHT22;1560;52.746;13.474;2023-07-31T18:06:22;18.30;99.90
3100;DHT22;1560;52.746;13.474;2023-07-31T18:08:51;18.30;99.90
3100;DHT22;1560;52.746;13.474;2023-07-31T18:11:21;18.20;99.90
3100;DHT22;1560;52.746;13.474;2023-07-31T18:16:28;18.10;99.90
3100;DHT22;1560;52.746;13.474;2023-07-31T18:18:57;18.10;99.90
3100;DHT22;1560;52.746;13.474;2023-07-31T18:21:26;18.20;99.90
3100;DHT22;1560;52.746;13.474;2023-07-31T18:26:31;18.10;99.90
3100;DHT22;1560;52.746;13.474;2023-07-31T18:29:00;18.10;99.90
3100;DHT22;1560;52.746;13.474;2023-07-31T18:31:29;18.20;99.90
3100;DHT22;1560;52.746;13.474;2023-07-31T18:33:58;18.10;99.90
3100;DHT22;1560;52.746;13.474;2023-07-31T18:36:26;18.20;99.90
3100;DHT22;1560;52.746;13.474;2023-07-31T18:38:55;18.10;99.90
3100;DHT22;1560;52.746;13.474;2023-07-31T18:41:25;18.10;99.90
3100;DHT22;1560;52.746;13.474;2023-07-31T18:46:29;18.10;99.90
3100;DHT22;1560;52.746;13.474;2023-07-31T18:48:59;18.10;99.90
3100;DHT22;1560;52.746;13.474;2023-07-31T18:51:28;18.10;99.90
3100;DHT22;1560;52.746;13.474;2023-07-31T18:53:58;18.10;99.90
3100;DHT22;1560;52.746;13.474;2023-07-31T18:56:28;18.10;99.90
3100;DHT22;1560;52.746;13.474;2023-07-31T18:58:56;18.00;99.90
3100;DHT22;1560;52.746;13.474;2023-07-31T19:01:26;18.10;99.90
3100;DHT22;1560;52.746;13.474;2023-07-31T19:03:55;18.00;99.90
3100;DHT22;1560;52.746;13.474;2023-07-31T19:06:25;18.00;99.90
3100;DHT22;1560;52.746;13.474;2023-07-31T19:08:54;18.10;99.90
3100;DHT22;1560;52.746;13.474;2023-07-31T19:11:22;18.10;99.90
3100;DHT22;1560;52.746;13.474;2023-07-31T19:16:28;18.10;99.90
3100;DHT22;1560;52.746;13.474;2023-07-31T19:18:57;18.10;99.90
3100;DHT22;1560;52.746;13.474;2023-07-31T19:21:26;18.00;99.90
3100;DHT22;1560;52.746;13.474;2023-07-31T19:23:54;18.00;99.90
3100;DHT22;1560;52.746;13.474;2023-07-31T19:26:23;18.00;99.90
3100;DHT22;1560;52.746;13.474;2023-07-31T19:31:29;17.90;99.90
3100;DHT22;1560;52.746;13.474;2023-07-31T19:33:57;17.90;99.90
3100;DHT22;1560;52.746;13.474;2023-07-31T19:36:26;17.90;99.90
3100;DHT22;1560;52.746;13.474;2023-07-31T19:38:55;17.90;99.90
3100;DHT22;1560;52.746;13.474;2023-07-31T19:44:01;17.90;99.90
3100;DHT22;1560;52.746;13.474;2023-07-31T19:46:29;17.90;99.90
3100;DHT22;1560;52.746;13.474;2023-07-31T19:48:58;17.90;99.90